sensor_id;sensor_type;location;lat;lon;timestamp;P1;durP1;ratioP1;P2;durP2;ratioP2
9424;SDS011;17139;52.140;11.636;2024-02-26T00:00:46;2.60;;;2.40;;
9424;SDS011;17139;52.140;11.636;2024-02-26T00:03:12;2.50;;;2.40;;
9424;SDS011;17139;52.140;11.636;2024-02-26T00:05:38;2.60;;;2.50;;
9424;SDS011;17139;52.140;11.636;2024-02-26T00:08:04;2.70;;;2.60;;
9424;SDS011;17139;52.140;11.636;2024-02-26T00:10:31;2.00;;;1.90;;
9424;SDS011;17139;52.140;11.636;2024-02-26T00:12:58;2.30;;;2.20;;
9424;SDS011;17139;52.140;11.636;2024-02-26T00:15:24;2.77;;;2.67;;
9424;SDS011;17139;52.140;11.636;2024-02-26T00:17:50;2.40;;;2.30;;
9424;SDS011;17139;52.140;11.636;2024-02-26T00:20:16;2.30;;;2.20;;
9424;SDS011;17139;52.140;11.636;2024-02-26T00:22:41;2.33;;;2.23;;
9424;SDS011;17139;52.140;11.636;2024-02-26T00:25:07;2.13;;;2.03;;
9424;SDS011;17139;52.140;11.636;2024-02-26T00:27:33;2.53;;;2.33;;
9424;SDS011;17139;52.140;11.636;2024-02-26T00:30:01;2.33;;;2.23;;
9424;SDS011;17139;52.140;11.636;2024-02-26T00:32:27;2.20;;;2.10;;
9424;SDS011;17139;52.140;11.636;2024-02-26T00:34:53;2.27;;;2.17;;
9424;SDS011;17139;52.140;11.636;2024-02-26T00:37:19;3.63;;;3.35;;
9424;SDS011;17139;52.140;11.636;2024-02-26T00:39:44;3.07;;;2.97;;
9424;SDS011;17139;52.140;11.636;2024-02-26T00:42:10;2.43;;;2.33;;
9424;SDS011;17139;52.140;11.636;2024-02-26T00:44:36;2.20;;;2.10;;
9424;SDS011;17139;52.140;11.636;2024-02-26T00:47:04;2.47;;;2.37;;
9424;SDS011;17139;52.140;11.636;2024-02-26T00:49:30;2.40;;;2.30;;
9424;SDS011;17139;52.140;11.636;2024-02-26T00:51:56;3.07;;;2.50;;
9424;SDS011;17139;52.140;11.636;2024-02-26T00:54:22;2.10;;;2.00;;
9424;SDS011;17139;52.140;11.636;2024-02-26T00:56:48;2.37;;;2.27;;
9424;SDS011;17139;52.140;11.636;2024-02-26T00:59:14;4.43;;;2.40;;
9424;SDS011;17139;52.140;11.636;2024-02-26T01:01:40;2.37;;;2.27;;
9424;SDS011;17139;52.140;11.636;2024-02-26T01:04:07;2.40;;;2.30;;
9424;SDS011;17139;52.140;11.636;2024-02-26T01:06:33;2.17;;;2.07;;
9424;SDS011;17139;52.140;11.636;2024-02-26T01:08:59;2.27;;;2.17;;
9424;SDS011;17139;52.140;11.636;2024-02-26T01:11:25;2.50;;;2.30;;
9424;SDS011;17139;52.140;11.636;2024-02-26T01:13:51;2.37;;;2.20;;
9424;SDS011;17139;52.140;11.636;2024-02-26T01:16:17;2.30;;;2.20;;
9424;SDS011;17139;52.140;11.636;2024-02-26T01:18:42;8.43;;;2.73;;
9424;SDS011;17139;52.140;11.636;2024-02-26T01:21:10;2.70;;;2.60;;
9424;SDS011;17139;52.140;11.636;2024-02-26T01:23:36;2.43;;;2.33;;
9424;SDS011;17139;52.140;11.636;2024-02-26T01:26:02;2.80;;;2.60;;
9424;SDS011;17139;52.140;11.636;2024-02-26T01:28:28;2.37;;;2.27;;
9424;SDS011;17139;52.140;11.636;2024-02-26T01:30:53;2.60;;;2.50;;
9424;SDS011;17139;52.140;11.636;2024-02-26T01:33:19;2.80;;;2.67;;
9424;SDS011;17139;52.140;11.636;2024-02-26T01:35:45;3.63;;;2.73;;
9424;SDS011;17139;52.140;11.636;2024-02-26T01:38:13;4.90;;;2.70;;
9424;SDS011;17139;52.140;11.636;2024-02-26T01:40:39;2.60;;;2.50;;
9424;SDS011;17139;52.140;11.636;2024-02-26T01:43:05;2.33;;;2.23;;
9424;SDS011;17139;52.140;11.636;2024-02-26T01:45:30;2.53;;;2.43;;
9424;SDS011;17139;52.140;11.636;2024-02-26T01:47:56;2.73;;;2.63;;
9424;SDS011;17139;52.140;11.636;2024-02-26T01:50:23;3.13;;;2.83;;
9424;SDS011;17139;52.140;11.636;2024-02-26T01:52:49;2.10;;;2.00;;
9424;SDS011;17139;52.140;11.636;2024-02-26T01:55:18;2.47;;;2.37;;
9424;SDS011;17139;52.140;11.636;2024-02-26T01:57:45;2.83;;;2.63;;
9424;SDS011;17139;52.140;11.636;2024-02-26T02:00:14;2.60;;;2.50;;
9424;SDS011;17139;52.140;11.636;2024-02-26T02:02:40;2.60;;;2.50;;
9424;SDS011;17139;52.140;11.636;2024-02-26T02:05:07;3.65;;;3.38;;
9424;SDS011;17139;52.140;11.636;2024-02-26T02:07:35;2.67;;;2.57;;
9424;SDS011;17139;52.140;11.636;2024-02-26T02:10:01;2.30;;;2.20;;
9424;SDS011;17139;52.140;11.636;2024-02-26T02:12:28;2.90;;;2.80;;
9424;SDS011;17139;52.140;11.636;2024-02-26T02:14:55;2.80;;;2.70;;
9424;SDS011;17139;52.140;11.636;2024-02-26T02:17:21;2.77;;;2.67;;
9424;SDS011;17139;52.140;11.636;2024-02-26T02:19:47;3.00;;;2.70;;
9424;SDS011;17139;52.140;11.636;2024-02-26T02:22:14;2.30;;;2.20;;
9424;SDS011;17139;52.140;11.636;2024-02-26T02:24:40;2.50;;;2.30;;
9424;SDS011;17139;52.140;11.636;2024-02-26T02:27:06;2.33;;;2.23;;
9424;SDS011;17139;52.140;11.636;2024-02-26T02:29:32;2.60;;;2.40;;
9424;SDS011;17139;52.140;11.636;2024-02-26T02:31:58;2.70;;;2.60;;
9424;SDS011;17139;52.140;11.636;2024-02-26T02:34:26;3.07;;;2.87;;
9424;SDS011;17139;52.140;11.636;2024-02-26T02:36:52;2.40;;;2.30;;
9424;SDS011;17139;52.140;11.636;2024-02-26T02:39:20;4.20;;;2.73;;
9424;SDS011;17139;52.140;11.636;2024-02-26T02:41:46;2.80;;;2.60;;
9424;SDS011;17139;52.140;11.636;2024-02-26T02:44:12;3.60;;;3.30;;
9424;SDS011;17139;52.140;11.636;2024-02-26T02:46:38;2.97;;;2.87;;
9424;SDS011;17139;52.140;11.636;2024-02-26T02:49:07;2.77;;;2.67;;
9424;SDS011;17139;52.140;11.636;2024-02-26T02:51:34;2.77;;;2.67;;
9424;SDS011;17139;52.140;11.636;2024-02-26T02:54:00;2.83;;;2.53;;
9424;SDS011;17139;52.140;11.636;2024-02-26T02:56:27;4.95;;;4.50;;
9424;SDS011;17139;52.140;11.636;2024-02-26T02:58:53;3.17;;;3.07;;
9424;SDS011;17139;52.140;11.636;2024-02-26T03:01:19;3.20;;;3.10;;
9424;SDS011;17139;52.140;11.636;2024-02-26T03:03:45;4.57;;;4.18;;
9424;SDS011;17139;52.140;11.636;2024-02-26T03:06:11;3.20;;;3.10;;
9424;SDS011;17139;52.140;11.636;2024-02-26T03:08:37;3.60;;;3.40;;
9424;SDS011;17139;52.140;11.636;2024-02-26T03:11:03;3.93;;;3.63;;
9424;SDS011;17139;52.140;11.636;2024-02-26T03:13:30;3.23;;;3.13;;
9424;SDS011;17139;52.140;11.636;2024-02-26T03:15:56;2.97;;;2.83;;
9424;SDS011;17139;52.140;11.636;2024-02-26T03:18:22;2.80;;;2.70;;
9424;SDS011;17139;52.140;11.636;2024-02-26T03:20:48;3.40;;;3.20;;
9424;SDS011;17139;52.140;11.636;2024-02-26T03:23:14;3.27;;;3.07;;
9424;SDS011;17139;52.140;11.636;2024-02-26T03:25:41;2.77;;;2.67;;
9424;SDS011;17139;52.140;11.636;2024-02-26T03:28:07;2.87;;;2.77;;
9424;SDS011;17139;52.140;11.636;2024-02-26T03:30:35;3.20;;;3.00;;
9424;SDS011;17139;52.140;11.636;2024-02-26T03:33:01;3.10;;;3.00;;
9424;SDS011;17139;52.140;11.636;2024-02-26T03:35:26;2.83;;;2.73;;
9424;SDS011;17139;52.140;11.636;2024-02-26T03:37:52;2.97;;;2.87;;
9424;SDS011;17139;52.140;11.636;2024-02-26T03:40:18;3.50;;;3.20;;
9424;SDS011;17139;52.140;11.636;2024-02-26T03:42:44;3.63;;;3.33;;
9424;SDS011;17139;52.140;11.636;2024-02-26T03:45:10;3.37;;;3.17;;
9424;SDS011;17139;52.140;11.636;2024-02-26T03:47:38;3.80;;;3.50;;
9424;SDS011;17139;52.140;11.636;2024-02-26T03:50:04;3.47;;;3.27;;
9424;SDS011;17139;52.140;11.636;2024-02-26T03:52:31;5.20;;;4.90;;
9424;SDS011;17139;52.140;11.636;2024-02-26T03:54:57;3.73;;;3.63;;
9424;SDS011;17139;52.140;11.636;2024-02-26T03:57:23;3.60;;;3.40;;
9424;SDS011;17139;52.140;11.636;2024-02-26T03:59:49;3.43;;;3.13;;
9424;SDS011;17139;52.140;11.636;2024-02-26T04:02:16;3.87;;;3.67;;
9424;SDS011;17139;52.140;11.636;2024-02-26T04:04:43;3.73;;;3.20;;
9424;SDS011;17139;52.140;11.636;2024-02-26T04:07:09;3.40;;;3.27;;
9424;SDS011;17139;52.140;11.636;2024-02-26T04:09:35;3.27;;;3.10;;
9424;SDS011;17139;52.140;11.636;2024-02-26T04:12:01;3.70;;;3.50;;
9424;SDS011;17139;52.140;11.636;2024-02-26T04:14:27;3.13;;;3.03;;
9424;SDS011;17139;52.140;11.636;2024-02-26T04:16:53;3.23;;;3.03;;
9424;SDS011;17139;52.140;11.636;2024-02-26T04:19:19;2.90;;;2.80;;
9424;SDS011;17139;52.140;11.636;2024-02-26T04:21:47;3.43;;;3.23;;
9424;SDS011;17139;52.140;11.636;2024-02-26T04:24:13;3.07;;;2.90;;
9424;SDS011;17139;52.140;11.636;2024-02-26T04:26:39;3.00;;;2.90;;
9424;SDS011;17139;52.140;11.636;2024-02-26T04:29:05;3.87;;;3.37;;
9424;SDS011;17139;52.140;11.636;2024-02-26T04:31:31;4.13;;;3.33;;
9424;SDS011;17139;52.140;11.636;2024-02-26T04:33:57;3.85;;;3.65;;
9424;SDS011;17139;52.140;11.636;2024-02-26T04:36:23;3.33;;;3.10;;
9424;SDS011;17139;52.140;11.636;2024-02-26T04:38:50;3.63;;;3.23;;
9424;SDS011;17139;52.140;11.636;2024-02-26T04:41:16;3.30;;;3.10;;
9424;SDS011;17139;52.140;11.636;2024-02-26T04:43:42;3.40;;;3.20;;
9424;SDS011;17139;52.140;11.636;2024-02-26T04:46:08;3.40;;;3.20;;
9424;SDS011;17139;52.140;11.636;2024-02-26T04:48:34;3.40;;;3.20;;
9424;SDS011;17139;52.140;11.636;2024-02-26T04:51:00;2.60;;;2.50;;
9424;SDS011;17139;52.140;11.636;2024-02-26T04:53:26;3.17;;;3.03;;
9424;SDS011;17139;52.140;11.636;2024-02-26T04:55:53;2.93;;;2.83;;
9424;SDS011;17139;52.140;11.636;2024-02-26T04:58:19;3.40;;;3.20;;
9424;SDS011;17139;52.140;11.636;2024-02-26T05:00:45;8.63;;;3.23;;
9424;SDS011;17139;52.140;11.636;2024-02-26T05:03:11;4.20;;;3.80;;
9424;SDS011;17139;52.140;11.636;2024-02-26T05:05:37;6.40;;;5.73;;
9424;SDS011;17139;52.140;11.636;2024-02-26T05:08:04;13.67;;;6.83;;
9424;SDS011;17139;52.140;11.636;2024-02-26T05:10:30;9.43;;;6.20;;
9424;SDS011;17139;52.140;11.636;2024-02-26T05:12:57;5.80;;;5.23;;
9424;SDS011;17139;52.140;11.636;2024-02-26T05:15:23;4.23;;;4.03;;
9424;SDS011;17139;52.140;11.636;2024-02-26T05:17:49;5.67;;;5.17;;
9424;SDS011;17139;52.140;11.636;2024-02-26T05:20:15;3.60;;;3.40;;
9424;SDS011;17139;52.140;11.636;2024-02-26T05:22:41;6.37;;;5.33;;
9424;SDS011;17139;52.140;11.636;2024-02-26T05:25:07;4.30;;;3.97;;
9424;SDS011;17139;52.140;11.636;2024-02-26T05:27:33;4.27;;;2.97;;
9424;SDS011;17139;52.140;11.636;2024-02-26T05:30:00;4.40;;;4.10;;
9424;SDS011;17139;52.140;11.636;2024-02-26T05:32:26;3.97;;;3.77;;
9424;SDS011;17139;52.140;11.636;2024-02-26T05:34:52;3.30;;;3.00;;
9424;SDS011;17139;52.140;11.636;2024-02-26T05:37:18;3.63;;;3.20;;
9424;SDS011;17139;52.140;11.636;2024-02-26T05:39:44;3.83;;;3.60;;
9424;SDS011;17139;52.140;11.636;2024-02-26T05:42:10;4.80;;;4.60;;
9424;SDS011;17139;52.140;11.636;2024-02-26T05:44:36;3.63;;;3.43;;
9424;SDS011;17139;52.140;11.636;2024-02-26T05:47:03;3.87;;;3.67;;
9424;SDS011;17139;52.140;11.636;2024-02-26T05:49:29;3.43;;;3.23;;
9424;SDS011;17139;52.140;11.636;2024-02-26T05:51:55;4.23;;;4.03;;
9424;SDS011;17139;52.140;11.636;2024-02-26T05:54:21;3.80;;;3.60;;
9424;SDS011;17139;52.140;11.636;2024-02-26T05:56:47;3.27;;;3.10;;
9424;SDS011;17139;52.140;11.636;2024-02-26T05:59:13;3.00;;;2.80;;
9424;SDS011;17139;52.140;11.636;2024-02-26T06:01:39;3.37;;;3.17;;
9424;SDS011;17139;52.140;11.636;2024-02-26T06:04:06;3.47;;;3.17;;
9424;SDS011;17139;52.140;11.636;2024-02-26T06:06:32;6.00;;;5.70;;
9424;SDS011;17139;52.140;11.636;2024-02-26T06:08:58;4.07;;;3.77;;
9424;SDS011;17139;52.140;11.636;2024-02-26T06:11:24;3.23;;;3.03;;
9424;SDS011;17139;52.140;11.636;2024-02-26T06:13:50;3.50;;;3.27;;
9424;SDS011;17139;52.140;11.636;2024-02-26T06:16:16;5.23;;;3.70;;
9424;SDS011;17139;52.140;11.636;2024-02-26T06:18:42;4.30;;;3.50;;
9424;SDS011;17139;52.140;11.636;2024-02-26T06:21:10;3.80;;;3.60;;
9424;SDS011;17139;52.140;11.636;2024-02-26T06:23:36;4.60;;;4.30;;
9424;SDS011;17139;52.140;11.636;2024-02-26T06:26:02;3.00;;;2.80;;
9424;SDS011;17139;52.140;11.636;2024-02-26T06:28:28;3.43;;;3.13;;
9424;SDS011;17139;52.140;11.636;2024-02-26T06:30:54;3.13;;;3.03;;
9424;SDS011;17139;52.140;11.636;2024-02-26T06:33:20;2.30;;;2.20;;
9424;SDS011;17139;52.140;11.636;2024-02-26T06:35:46;1.50;;;1.50;;
9424;SDS011;17139;52.140;11.636;2024-02-26T06:38:13;1.63;;;1.63;;
9424;SDS011;17139;52.140;11.636;2024-02-26T06:40:39;5.20;;;4.90;;
9424;SDS011;17139;52.140;11.636;2024-02-26T06:43:05;3.80;;;3.60;;
9424;SDS011;17139;52.140;11.636;2024-02-26T06:45:31;2.97;;;2.87;;
9424;SDS011;17139;52.140;11.636;2024-02-26T06:47:57;3.20;;;3.00;;
9424;SDS011;17139;52.140;11.636;2024-02-26T06:50:23;3.20;;;3.00;;
9424;SDS011;17139;52.140;11.636;2024-02-26T06:52:49;3.87;;;2.80;;
9424;SDS011;17139;52.140;11.636;2024-02-26T06:55:16;2.90;;;2.80;;
9424;SDS011;17139;52.140;11.636;2024-02-26T06:57:42;2.83;;;2.73;;
9424;SDS011;17139;52.140;11.636;2024-02-26T07:00:09;3.10;;;3.00;;
9424;SDS011;17139;52.140;11.636;2024-02-26T07:02:36;2.97;;;2.73;;
9424;SDS011;17139;52.140;11.636;2024-02-26T07:05:02;4.00;;;2.83;;
9424;SDS011;17139;52.140;11.636;2024-02-26T07:07:28;2.83;;;2.63;;
9424;SDS011;17139;52.140;11.636;2024-02-26T07:09:54;4.23;;;2.73;;
9424;SDS011;17139;52.140;11.636;2024-02-26T07:12:22;3.80;;;3.50;;
9424;SDS011;17139;52.140;11.636;2024-02-26T07:14:47;12.13;;;3.07;;
9424;SDS011;17139;52.140;11.636;2024-02-26T07:17:14;2.97;;;2.87;;
9424;SDS011;17139;52.140;11.636;2024-02-26T07:19:40;3.17;;;2.50;;
9424;SDS011;17139;52.140;11.636;2024-02-26T07:22:06;3.70;;;3.50;;
9424;SDS011;17139;52.140;11.636;2024-02-26T07:24:32;3.40;;;3.20;;
9424;SDS011;17139;52.140;11.636;2024-02-26T07:26:58;3.40;;;2.90;;
9424;SDS011;17139;52.140;11.636;2024-02-26T07:29:25;5.05;;;4.20;;
9424;SDS011;17139;52.140;11.636;2024-02-26T07:31:51;3.77;;;3.60;;
9424;SDS011;17139;52.140;11.636;2024-02-26T07:34:17;17.33;;;3.77;;
9424;SDS011;17139;52.140;11.636;2024-02-26T07:36:43;4.30;;;4.10;;
9424;SDS011;17139;52.140;11.636;2024-02-26T07:39:09;7.33;;;3.40;;
9424;SDS011;17139;52.140;11.636;2024-02-26T07:41:35;3.50;;;3.20;;
9424;SDS011;17139;52.140;11.636;2024-02-26T07:44:00;2.93;;;2.83;;
9424;SDS011;17139;52.140;11.636;2024-02-26T07:46:28;2.90;;;2.30;;
9424;SDS011;17139;52.140;11.636;2024-02-26T07:48:54;3.00;;;2.90;;
9424;SDS011;17139;52.140;11.636;2024-02-26T07:51:20;4.07;;;3.73;;
9424;SDS011;17139;52.140;11.636;2024-02-26T07:53:46;3.53;;;3.37;;
9424;SDS011;17139;52.140;11.636;2024-02-26T07:56:11;3.77;;;3.57;;
9424;SDS011;17139;52.140;11.636;2024-02-26T07:58:38;4.20;;;3.90;;
9424;SDS011;17139;52.140;11.636;2024-02-26T08:01:03;4.10;;;3.80;;
9424;SDS011;17139;52.140;11.636;2024-02-26T08:03:31;6.63;;;3.73;;
9424;SDS011;17139;52.140;11.636;2024-02-26T08:05:57;3.53;;;3.43;;
9424;SDS011;17139;52.140;11.636;2024-02-26T08:08:23;6.33;;;3.67;;
9424;SDS011;17139;52.140;11.636;2024-02-26T08:10:49;3.20;;;3.10;;
9424;SDS011;17139;52.140;11.636;2024-02-26T08:13:15;2.90;;;2.80;;
9424;SDS011;17139;52.140;11.636;2024-02-26T08:15:41;3.67;;;3.37;;
9424;SDS011;17139;52.140;11.636;2024-02-26T08:18:07;4.83;;;3.40;;
9424;SDS011;17139;52.140;11.636;2024-02-26T08:20:34;3.60;;;3.40;;
9424;SDS011;17139;52.140;11.636;2024-02-26T08:23:00;5.25;;;4.93;;
9424;SDS011;17139;52.140;11.636;2024-02-26T08:25:26;4.07;;;3.87;;
9424;SDS011;17139;52.140;11.636;2024-02-26T08:27:52;2.70;;;2.50;;
9424;SDS011;17139;52.140;11.636;2024-02-26T08:30:18;4.07;;;3.67;;
9424;SDS011;17139;52.140;11.636;2024-02-26T08:32:44;3.93;;;3.73;;
9424;SDS011;17139;52.140;11.636;2024-02-26T08:35:10;4.13;;;3.93;;
9424;SDS011;17139;52.140;11.636;2024-02-26T08:37:38;3.50;;;3.30;;
9424;SDS011;17139;52.140;11.636;2024-02-26T08:40:04;4.13;;;3.83;;
9424;SDS011;17139;52.140;11.636;2024-02-26T08:42:31;3.67;;;3.47;;
9424;SDS011;17139;52.140;11.636;2024-02-26T08:44:57;4.53;;;4.23;;
9424;SDS011;17139;52.140;11.636;2024-02-26T08:47:23;3.80;;;3.60;;
9424;SDS011;17139;52.140;11.636;2024-02-26T08:49:49;4.23;;;4.03;;
9424;SDS011;17139;52.140;11.636;2024-02-26T08:52:15;3.20;;;3.03;;
9424;SDS011;17139;52.140;11.636;2024-02-26T08:54:42;4.17;;;3.87;;
9424;SDS011;17139;52.140;11.636;2024-02-26T08:57:08;6.00;;;5.60;;
9424;SDS011;17139;52.140;11.636;2024-02-26T08:59:34;5.70;;;5.40;;
9424;SDS011;17139;52.140;11.636;2024-02-26T09:02:00;5.33;;;4.83;;
9424;SDS011;17139;52.140;11.636;2024-02-26T09:04:26;5.10;;;4.70;;
9424;SDS011;17139;52.140;11.636;2024-02-26T09:06:52;6.47;;;6.07;;
9424;SDS011;17139;52.140;11.636;2024-02-26T09:09:18;5.13;;;4.83;;
9424;SDS011;17139;52.140;11.636;2024-02-26T09:11:46;4.63;;;4.40;;
9424;SDS011;17139;52.140;11.636;2024-02-26T09:14:12;5.30;;;4.90;;
9424;SDS011;17139;52.140;11.636;2024-02-26T09:16:37;4.67;;;4.37;;
9424;SDS011;17139;52.140;11.636;2024-02-26T09:19:03;4.93;;;4.53;;
9424;SDS011;17139;52.140;11.636;2024-02-26T09:21:29;6.93;;;6.37;;
9424;SDS011;17139;52.140;11.636;2024-02-26T09:23:55;5.10;;;4.87;;
9424;SDS011;17139;52.140;11.636;2024-02-26T09:26:21;4.00;;;3.53;;
9424;SDS011;17139;52.140;11.636;2024-02-26T09:28:49;4.90;;;4.40;;
9424;SDS011;17139;52.140;11.636;2024-02-26T09:31:15;4.77;;;4.57;;
9424;SDS011;17139;52.140;11.636;2024-02-26T09:33:42;4.70;;;4.40;;
9424;SDS011;17139;52.140;11.636;2024-02-26T09:36:08;4.73;;;4.20;;
9424;SDS011;17139;52.140;11.636;2024-02-26T09:38:34;4.57;;;3.83;;
9424;SDS011;17139;52.140;11.636;2024-02-26T09:41:00;4.70;;;4.30;;
9424;SDS011;17139;52.140;11.636;2024-02-26T09:43:26;4.43;;;4.20;;
9424;SDS011;17139;52.140;11.636;2024-02-26T09:46:11;6.50;;;6.10;;
9424;SDS011;17139;52.140;11.636;2024-02-26T09:48:37;5.20;;;4.90;;
9424;SDS011;17139;52.140;11.636;2024-02-26T09:51:04;5.50;;;5.10;;
9424;SDS011;17139;52.140;11.636;2024-02-26T09:53:31;6.13;;;5.63;;
9424;SDS011;17139;52.140;11.636;2024-02-26T09:55:57;5.43;;;5.03;;
9424;SDS011;17139;52.140;11.636;2024-02-26T09:58:24;5.23;;;4.83;;
9424;SDS011;17139;52.140;11.636;2024-02-26T10:00:53;6.10;;;5.50;;
9424;SDS011;17139;52.140;11.636;2024-02-26T10:03:23;5.27;;;4.97;;
9424;SDS011;17139;52.140;11.636;2024-02-26T10:05:53;5.97;;;5.47;;
9424;SDS011;17139;52.140;11.636;2024-02-26T10:08:19;5.50;;;5.07;;
9424;SDS011;17139;52.140;11.636;2024-02-26T10:10:45;5.57;;;5.07;;
9424;SDS011;17139;52.140;11.636;2024-02-26T10:13:11;6.17;;;5.67;;
9424;SDS011;17139;52.140;11.636;2024-02-26T10:15:37;5.93;;;5.43;;
9424;SDS011;17139;52.140;11.636;2024-02-26T10:18:03;5.80;;;5.50;;
9424;SDS011;17139;52.140;11.636;2024-02-26T10:20:31;4.27;;;4.07;;
9424;SDS011;17139;52.140;11.636;2024-02-26T10:22:57;6.17;;;5.87;;
9424;SDS011;17139;52.140;11.636;2024-02-26T10:25:23;5.93;;;5.20;;
9424;SDS011;17139;52.140;11.636;2024-02-26T10:27:49;7.10;;;6.65;;
9424;SDS011;17139;52.140;11.636;2024-02-26T10:30:16;5.90;;;5.50;;
9424;SDS011;17139;52.140;11.636;2024-02-26T10:32:43;5.13;;;4.73;;
9424;SDS011;17139;52.140;11.636;2024-02-26T10:35:09;5.65;;;5.13;;
9424;SDS011;17139;52.140;11.636;2024-02-26T10:37:37;5.53;;;5.07;;
9424;SDS011;17139;52.140;11.636;2024-02-26T10:40:03;6.57;;;6.13;;
9424;SDS011;17139;52.140;11.636;2024-02-26T10:42:30;5.47;;;5.17;;
9424;SDS011;17139;52.140;11.636;2024-02-26T10:44:56;8.50;;;6.17;;
9424;SDS011;17139;52.140;11.636;2024-02-26T10:47:23;6.20;;;5.80;;
9424;SDS011;17139;52.140;11.636;2024-02-26T10:49:49;6.00;;;5.60;;
9424;SDS011;17139;52.140;11.636;2024-02-26T10:52:15;7.00;;;6.30;;
9424;SDS011;17139;52.140;11.636;2024-02-26T10:54:45;7.77;;;7.13;;
9424;SDS011;17139;52.140;11.636;2024-02-26T10:57:13;7.30;;;6.53;;
9424;SDS011;17139;52.140;11.636;2024-02-26T10:59:41;4.67;;;4.27;;
9424;SDS011;17139;52.140;11.636;2024-02-26T11:02:09;7.30;;;6.60;;
9424;SDS011;17139;52.140;11.636;2024-02-26T11:04:37;6.97;;;6.37;;
9424;SDS011;17139;52.140;11.636;2024-02-26T11:07:08;7.07;;;6.57;;
9424;SDS011;17139;52.140;11.636;2024-02-26T11:09:34;7.70;;;5.77;;
9424;SDS011;17139;52.140;11.636;2024-02-26T11:12:02;6.27;;;5.87;;
9424;SDS011;17139;52.140;11.636;2024-02-26T11:14:29;10.02;;;7.90;;
9424;SDS011;17139;52.140;11.636;2024-02-26T11:16:55;5.77;;;5.47;;
9424;SDS011;17139;52.140;11.636;2024-02-26T11:19:22;7.00;;;6.23;;
9424;SDS011;17139;52.140;11.636;2024-02-26T11:21:49;8.13;;;7.50;;
9424;SDS011;17139;52.140;11.636;2024-02-26T11:24:15;7.20;;;6.57;;
9424;SDS011;17139;52.140;11.636;2024-02-26T11:26:44;8.00;;;7.30;;
9424;SDS011;17139;52.140;11.636;2024-02-26T11:29:15;7.17;;;6.67;;
9424;SDS011;17139;52.140;11.636;2024-02-26T11:31:46;7.13;;;6.63;;
9424;SDS011;17139;52.140;11.636;2024-02-26T11:34:12;7.13;;;6.60;;
9424;SDS011;17139;52.140;11.636;2024-02-26T11:36:39;6.33;;;5.83;;
9424;SDS011;17139;52.140;11.636;2024-02-26T11:39:05;7.00;;;6.50;;
9424;SDS011;17139;52.140;11.636;2024-02-26T11:41:32;9.03;;;8.13;;
9424;SDS011;17139;52.140;11.636;2024-02-26T11:43:58;12.27;;;7.27;;
9424;SDS011;17139;52.140;11.636;2024-02-26T11:46:26;3.70;;;3.50;;
9424;SDS011;17139;52.140;11.636;2024-02-26T11:48:54;5.87;;;5.57;;
9424;SDS011;17139;52.140;11.636;2024-02-26T11:51:24;8.10;;;6.07;;
9424;SDS011;17139;52.140;11.636;2024-02-26T11:53:51;7.77;;;7.17;;
9424;SDS011;17139;52.140;11.636;2024-02-26T11:56:20;7.40;;;6.77;;
9424;SDS011;17139;52.140;11.636;2024-02-26T11:58:47;10.40;;;9.35;;
9424;SDS011;17139;52.140;11.636;2024-02-26T12:04:04;9.38;;;7.47;;
9424;SDS011;17139;52.140;11.636;2024-02-26T12:06:30;8.83;;;8.07;;
9424;SDS011;17139;52.140;11.636;2024-02-26T12:08:57;11.85;;;10.75;;
9424;SDS011;17139;52.140;11.636;2024-02-26T12:11:23;9.87;;;8.90;;
9424;SDS011;17139;52.140;11.636;2024-02-26T12:13:53;9.70;;;8.33;;
9424;SDS011;17139;52.140;11.636;2024-02-26T12:16:34;8.70;;;7.90;;
9424;SDS011;17139;52.140;11.636;2024-02-26T12:19:02;7.37;;;6.87;;
9424;SDS011;17139;52.140;11.636;2024-02-26T12:21:29;8.17;;;6.90;;
9424;SDS011;17139;52.140;11.636;2024-02-26T12:23:55;7.33;;;6.77;;
9424;SDS011;17139;52.140;11.636;2024-02-26T12:26:33;8.80;;;8.00;;
9424;SDS011;17139;52.140;11.636;2024-02-26T12:28:59;11.53;;;8.00;;
9424;SDS011;17139;52.140;11.636;2024-02-26T12:31:24;11.20;;;10.10;;
9424;SDS011;17139;52.140;11.636;2024-02-26T12:33:52;8.83;;;7.23;;
9424;SDS011;17139;52.140;11.636;2024-02-26T12:36:20;9.13;;;8.30;;
9424;SDS011;17139;52.140;11.636;2024-02-26T12:38:46;9.73;;;8.98;;
9424;SDS011;17139;52.140;11.636;2024-02-26T12:41:12;8.00;;;7.33;;
9424;SDS011;17139;52.140;11.636;2024-02-26T12:43:39;5.20;;;5.00;;
9424;SDS011;17139;52.140;11.636;2024-02-26T12:46:06;10.93;;;9.60;;
9424;SDS011;17139;52.140;11.636;2024-02-26T12:48:32;9.17;;;8.17;;
9424;SDS011;17139;52.140;11.636;2024-02-26T12:50:58;8.47;;;7.03;;
9424;SDS011;17139;52.140;11.636;2024-02-26T12:53:26;7.80;;;6.00;;
9424;SDS011;17139;52.140;11.636;2024-02-26T12:55:52;9.17;;;8.27;;
9424;SDS011;17139;52.140;11.636;2024-02-26T12:58:18;8.40;;;7.80;;
9424;SDS011;17139;52.140;11.636;2024-02-26T13:00:46;8.03;;;7.43;;
9424;SDS011;17139;52.140;11.636;2024-02-26T13:03:12;5.87;;;5.37;;
9424;SDS011;17139;52.140;11.636;2024-02-26T13:05:38;7.80;;;7.17;;
9424;SDS011;17139;52.140;11.636;2024-02-26T13:08:05;7.50;;;6.90;;
9424;SDS011;17139;52.140;11.636;2024-02-26T13:10:33;7.53;;;6.93;;
9424;SDS011;17139;52.140;11.636;2024-02-26T13:13:01;6.83;;;6.40;;
9424;SDS011;17139;52.140;11.636;2024-02-26T13:15:27;7.17;;;6.63;;
9424;SDS011;17139;52.140;11.636;2024-02-26T13:17:53;6.97;;;6.57;;
9424;SDS011;17139;52.140;11.636;2024-02-26T13:20:26;5.60;;;5.10;;
9424;SDS011;17139;52.140;11.636;2024-02-26T13:22:59;10.77;;;7.20;;
9424;SDS011;17139;52.140;11.636;2024-02-26T13:25:25;6.33;;;5.73;;
9424;SDS011;17139;52.140;11.636;2024-02-26T13:27:53;5.60;;;5.13;;
9424;SDS011;17139;52.140;11.636;2024-02-26T13:30:31;4.50;;;4.20;;
9424;SDS011;17139;52.140;11.636;2024-02-26T13:32:57;9.68;;;8.88;;
9424;SDS011;17139;52.140;11.636;2024-02-26T13:35:33;4.60;;;4.20;;
9424;SDS011;17139;52.140;11.636;2024-02-26T13:37:59;6.90;;;6.20;;
9424;SDS011;17139;52.140;11.636;2024-02-26T13:40:25;6.17;;;5.77;;
9424;SDS011;17139;52.140;11.636;2024-02-26T13:42:51;2.50;;;1.80;;
9424;SDS011;17139;52.140;11.636;2024-02-26T13:45:18;7.17;;;6.30;;
9424;SDS011;17139;52.140;11.636;2024-02-26T13:47:44;0.90;;;0.90;;
9424;SDS011;17139;52.140;11.636;2024-02-26T13:50:10;7.87;;;7.17;;
9424;SDS011;17139;52.140;11.636;2024-02-26T13:52:36;9.53;;;8.47;;
9424;SDS011;17139;52.140;11.636;2024-02-26T13:55:02;8.13;;;7.33;;
9424;SDS011;17139;52.140;11.636;2024-02-26T13:57:29;2.97;;;2.80;;
9424;SDS011;17139;52.140;11.636;2024-02-26T13:59:57;6.30;;;5.90;;
9424;SDS011;17139;52.140;11.636;2024-02-26T14:02:22;7.30;;;6.87;;
9424;SDS011;17139;52.140;11.636;2024-02-26T14:04:48;7.80;;;7.10;;
9424;SDS011;17139;52.140;11.636;2024-02-26T14:07:14;6.57;;;6.13;;
9424;SDS011;17139;52.140;11.636;2024-02-26T14:09:40;7.27;;;6.43;;
9424;SDS011;17139;52.140;11.636;2024-02-26T14:12:06;6.97;;;6.40;;
9424;SDS011;17139;52.140;11.636;2024-02-26T14:14:33;6.37;;;5.83;;
9424;SDS011;17139;52.140;11.636;2024-02-26T14:17:00;9.95;;;9.15;;
9424;SDS011;17139;52.140;11.636;2024-02-26T14:19:26;8.93;;;8.23;;
9424;SDS011;17139;52.140;11.636;2024-02-26T14:21:52;7.53;;;6.93;;
9424;SDS011;17139;52.140;11.636;2024-02-26T14:24:18;5.23;;;4.87;;
9424;SDS011;17139;52.140;11.636;2024-02-26T14:26:44;5.33;;;4.93;;
9424;SDS011;17139;52.140;11.636;2024-02-26T14:29:10;3.80;;;3.53;;
9424;SDS011;17139;52.140;11.636;2024-02-26T14:31:36;6.37;;;5.93;;
9424;SDS011;17139;52.140;11.636;2024-02-26T14:34:03;6.13;;;5.63;;
9424;SDS011;17139;52.140;11.636;2024-02-26T14:36:29;6.17;;;5.23;;
9424;SDS011;17139;52.140;11.636;2024-02-26T14:38:55;4.00;;;3.70;;
9424;SDS011;17139;52.140;11.636;2024-02-26T14:41:21;7.07;;;6.57;;
9424;SDS011;17139;52.140;11.636;2024-02-26T14:43:47;6.73;;;6.33;;
9424;SDS011;17139;52.140;11.636;2024-02-26T14:46:13;3.20;;;3.00;;